Ida Theresa — V7RQ9 — position and weather

sailwx.info

Track history (hours):
 
Tides and Currents Weather Stations Pressure Air Temp Water Temp Dewpoint Dewpoint Depression Visibility Wind Speed Wind Dir Waves Ship Positions

Ida Theresa

Last reported at 2015-Jun-12 12:29 UTC. Time now 2015-Jul-08 02:13 UTC.
Position N 35°57' W 005°36'.
Warning: this ship's position is 25 days out of date.

Length 121 m; draft 8.6 m.

Type: Ship. MMSI: 538090386.

Date/timePositionNaut miles runAvg speedWind from/ knotsBaromVisibWave heightAir tempDewpointWater temp
2015-Jun-12 12:29N 35°57' W 005°36'8 9.1
2015-Jun-12 11:33N 35°60' W 005°26'9 8.7
2015-Jun-12 10:33N 36°02' W 005°15'11510.3
2015-Jun-11 23:25N 36°21' W 002°55'910.3
2015-Jun-11 22:30N 36°22' W 002°44'1110.8
2015-Jun-11 21:28N 36°24' W 002°30'1011.2
2015-Jun-11 20:33N 36°25' W 002°17'3711.4
2015-Jun-11 17:19N 36°47' W 001°41'911.5
2015-Jun-11 16:33N 36°53' W 001°32'2811.7
2015-Jun-11 14:10N 37°11' W 001°06'912.0
2015-Jun-11 13:23N 37°18' W 000°57'1012.2
2015-Jun-11 12:33N 37°25' W 000°48'1212.4
2015-Jun-11 11:33N 37°33' W 000°36'1212.3
2015-Jun-11 10:33N 37°43' W 000°27'1312.6
2015-Jun-11 09:33N 37°53' W 000°18'1212.5
2015-Jun-11 08:33N 38°04' W 000°09'11312.4
2015-Jun-10 23:27N 39°41' E 001°04'1112.5
2015-Jun-10 22:32N 39°51' E 001°11'1212.6
2015-Jun-10 21:33N 40°02' E 001°19'1312.5
2015-Jun-10 20:33N 40°13' E 001°26'1212.4
2015-Jun-10 19:33N 40°24' E 001°34'1212.4
2015-Jun-10 18:33N 40°35' E 001°42'1212.5
2015-Jun-10 17:33N 40°46' E 001°49'1212.5
2015-Jun-10 16:33N 40°57' E 001°57'1212.1
2015-Jun-10 15:33N 41°08' E 002°04'1210.9
2015-Jun-10 14:24N 41°20' E 002°10'1 0.8
2015-Jun-10 13:29N 41°20' E 002°09'0 0.0
2015-Jun-10 03:28N 41°20' E 002°09'0 0.0
2015-Jun-09 21:04N 41°20' E 002°09'0 0.0
2015-Jun-09 18:10N 41°20' E 002°09'0 0.0
2015-Jun-09 07:28N 41°20' E 002°09'0 0.2
2015-Jun-09 06:10N 41°20' E 002°09'2 3.1
2015-Jun-09 05:31N 41°19' E 002°11'0 0.1
2015-Jun-09 04:10N 41°19' E 002°11'0 0.0
2015-Jun-09 03:28N 41°19' E 002°11'0 0.0
2015-Jun-09 02:22N 41°19' E 002°11'0 0.0
2015-Jun-08 23:16N 41°19' E 002°11'0 0.0
2015-Jun-08 22:07N 41°19' E 002°11'0 0.0
2015-Jun-08 21:10N 41°19' E 002°11'0 0.0
2015-Jun-08 20:04N 41°19' E 002°11'0 0.0
2015-Jun-08 19:28N 41°19' E 002°11'0 0.0
2015-Jun-08 18:28N 41°19' E 002°11'0 0.0
2015-Jun-08 17:04N 41°19' E 002°11'0 0.1
2015-Jun-08 16:31N 41°19' E 002°11'0 0.0
2015-Jun-08 15:28N 41°19' E 002°11'0 0.0
2015-Jun-08 14:28N 41°19' E 002°11'0 0.0
2015-Jun-08 13:28N 41°19' E 002°11'0 0.0
2015-Jun-08 12:10N 41°19' E 002°11'0 0.0
2015-Jun-08 11:10N 41°19' E 002°11'0 0.0
2015-Jun-08 10:16N 41°19' E 002°11'0 0.0
2015-Jun-08 07:28N 41°19' E 002°11'0 0.0
2015-Jun-08 00:22N 41°19' E 002°11'0 0.0
2015-Jun-07 23:28N 41°19' E 002°11'0 0.0
2015-Jun-07 22:28N 41°19' E 002°11'0 0.0
2015-Jun-07 21:04N 41°19' E 002°11'0 0.0
2015-Jun-07 20:22N 41°19' E 002°11'0 0.0
2015-Jun-07 19:10N 41°19' E 002°11'0 0.0
2015-Jun-07 17:10N 41°19' E 002°11'0 0.0
2015-Jun-07 16:28N 41°19' E 002°11'0 0.0
2015-Jun-07 15:28N 41°19' E 002°11'0 0.0
2015-Jun-07 14:31N 41°19' E 002°11'0 0.0
2015-Jun-07 13:19N 41°19' E 002°11'0 0.0
2015-Jun-07 12:28N 41°19' E 002°11'0 0.0
2015-Jun-07 11:31N 41°19' E 002°11'0 0.0
2015-Jun-07 10:28N 41°19' E 002°11'0 0.0
2015-Jun-07 09:28N 41°19' E 002°11'0 0.0
2015-Jun-07 08:22N 41°19' E 002°11'0 0.0
2015-Jun-07 07:16N 41°19' E 002°11'0 0.0
2015-Jun-07 06:10N 41°19' E 002°11'0 0.0
2015-Jun-07 05:31N 41°19' E 002°11'0 0.0
2015-Jun-07 04:28N 41°19' E 002°11'0 0.0
2015-Jun-07 03:28N 41°19' E 002°11'0 0.0
2015-Jun-07 02:25N 41°19' E 002°11'0 0.0
2015-Jun-07 01:31N 41°19' E 002°11'0 0.0
2015-Jun-07 00:31N 41°19' E 002°11'0 0.0
2015-Jun-06 23:28N 41°19' E 002°11'0 0.0
2015-Jun-06 22:31N 41°19' E 002°11'0 0.0
2015-Jun-06 21:28N 41°19' E 002°11'0 0.0
2015-Jun-06 20:28N 41°19' E 002°11'0 0.0
2015-Jun-06 19:28N 41°19' E 002°11'0 0.0
2015-Jun-06 18:31N 41°19' E 002°11'0 0.0
2015-Jun-06 17:28N 41°19' E 002°11'0 0.0
2015-Jun-06 16:28N 41°19' E 002°11'0 0.0
2015-Jun-06 15:31N 41°19' E 002°11'0 0.0
2015-Jun-06 14:28N 41°19' E 002°11'0 0.0
2015-Jun-06 12:22N 41°19' E 002°11'0 0.0
2015-Jun-06 11:28N 41°19' E 002°11'0 0.0
2015-Jun-06 10:28N 41°19' E 002°11'0 0.0
2015-Jun-06 08:16N 41°19' E 002°11'0 0.0
2015-Jun-06 07:28N 41°19' E 002°11'0 0.0
2015-Jun-06 06:28N 41°19' E 002°11'0 0.0
2015-Jun-06 05:28N 41°19' E 002°11'0 0.0
2015-Jun-06 04:16N 41°19' E 002°11'0 0.0
2015-Jun-06 03:31N 41°19' E 002°11'0 0.0
2015-Jun-06 02:31N 41°19' E 002°11'0 0.0
2015-Jun-06 01:28N 41°19' E 002°11'0 0.0
2015-Jun-06 00:28N 41°19' E 002°11'0 0.0
2015-Jun-05 23:28N 41°19' E 002°11'0 0.0
2015-Jun-05 22:25N 41°19' E 002°11'0 0.0
2015-Jun-05 21:31N 41°19' E 002°11'0 0.0
2015-Jun-05 20:31N 41°19' E 002°11'0 0.0
2015-Jun-05 19:19N 41°19' E 002°11'0 0.0
2015-Jun-05 18:19N 41°19' E 002°11'0 0.0
2015-Jun-05 17:22N 41°19' E 002°11'0 0.0
2015-Jun-05 16:31N 41°19' E 002°11'0 0.0
2015-Jun-05 14:33N 41°19' E 002°11'5 5.4
2015-Jun-05 13:33N 41°15' E 002°16'1312.7
2015-Jun-05 12:33N 41°09' E 002°31'1413.4
2015-Jun-05 11:33N 41°03' E 002°48'1312.8
2015-Jun-05 10:33N 40°58' E 003°03'1312.7
2015-Jun-05 09:34N 40°52' E 003°18'1313.2
2015-Jun-05 08:32N 40°47' E 003°34'1313.1
2015-Jun-05 07:33N 40°40' E 003°48'1313.2
2015-Jun-05 06:32N 40°34' E 004°04'1312.8
2015-Jun-05 05:32N 40°27' E 004°19'1313.0
2015-Jun-05 04:33N 40°20' E 004°33'1412.8
2015-Jun-05 03:30N 40°13' E 004°48'1213.1
2015-Jun-05 02:33N 40°07' E 005°02'1413.5
2015-Jun-05 01:31N 39°60' E 005°17'1313.0
2015-Jun-05 00:32N 39°53' E 005°32'1212.6
2015-Jun-04 23:33N 39°47' E 005°46'1313.0
2015-Jun-04 22:33N 39°40' E 006°00'1413.2
2015-Jun-04 21:30N 39°33' E 006°15'1313.4
2015-Jun-04 20:33N 39°26' E 006°30'1313.2
2015-Jun-04 19:32N 39°19' E 006°44'1313.0
2015-Jun-04 18:33N 39°13' E 006°59'1312.8
2015-Jun-04 17:32N 39°06' E 007°13'1313.0
2015-Jun-04 16:30N 38°59' E 007°28'1212.9
2015-Jun-04 15:33N 38°53' E 007°41'1313.0
2015-Jun-04 14:32N 38°46' E 007°56'1313.1
2015-Jun-04 13:33N 38°39' E 008°10'1212.4
2015-Jun-04 12:33N 38°32' E 008°23'1212.5
2015-Jun-04 11:33N 38°27' E 008°37'1312.4
2015-Jun-04 10:33N 38°20' E 008°51'1312.8
2015-Jun-04 09:33N 38°15' E 009°05'1313.2
2015-Jun-04 08:33N 38°10' E 009°21'1313.2
2015-Jun-04 07:33N 38°05' E 009°37'3913.0
2015-Jun-04 04:33N 37°49' E 010°22'1512.8
2015-Jun-04 03:22N 37°43' E 010°39'1012.5
2015-Jun-04 02:33N 37°37' E 010°50'1212.4
2015-Jun-04 01:33N 37°32' E 011°04'1312.6
2015-Jun-04 00:33N 37°25' E 011°18'1312.7
2015-Jun-03 23:33N 37°19' E 011°32'1312.6
2015-Jun-03 22:33N 37°12' E 011°45'1312.7
2015-Jun-03 21:33N 37°07' E 011°59'1312.8
2015-Jun-03 20:33N 37°01' E 012°13'1212.1
2015-Jun-03 19:32N 36°53' E 012°25'1212.4
2015-Jun-03 18:33N 36°43' E 012°35'1212.4
2015-Jun-03 17:33N 36°34' E 012°45'1312.6
2015-Jun-03 16:33N 36°24' E 012°55'1312.9
2015-Jun-03 15:33N 36°15' E 013°06'1312.5
2015-Jun-03 14:33N 36°05' E 013°16'1312.6
2015-Jun-03 13:33N 35°58' E 013°29'1212.5
2015-Jun-03 12:33N 35°52' E 013°42'1312.7
2015-Jun-03 11:33N 35°45' E 013°55'1312.6
2015-Jun-03 10:33N 35°38' E 014°08'1312.8
2015-Jun-03 09:33N 35°31' E 014°21'1312.6
2015-Jun-03 08:33N 35°24' E 014°34'1312.5
2015-Jun-03 07:33N 35°17' E 014°47'1212.5
2015-Jun-03 06:33N 35°10' E 014°60'1312.4
2015-Jun-03 05:32N 35°07' E 015°14'1212.3
2015-Jun-03 04:33N 35°04' E 015°29'1212.3
2015-Jun-03 03:33N 35°01' E 015°43'1212.5
2015-Jun-03 02:33N 34°58' E 015°58'1312.5
2015-Jun-03 01:33N 34°55' E 016°13'1312.5
2015-Jun-03 00:31N 34°52' E 016°28'1212.5
2015-Jun-02 23:33N 34°49' E 016°43'3812.7
2015-Jun-02 20:33N 34°40' E 017°28'1313.1
2015-Jun-02 19:33N 34°37' E 017°43'  
Track history (hours):
 
Tides and Currents Weather Stations Pressure Air Temp Water Temp Dewpoint Dewpoint Depression Visibility Wind Speed Wind Dir Waves Ship Positions

Ida Theresa

Last reported at 2015-Jun-12 12:29 UTC. Time now 2015-Jul-08 02:13 UTC.
Position N 35°57' W 005°36'.
Warning: this ship's position is 25 days out of date.

Length 121 m; draft 8.6 m.

Type: Ship. MMSI: 538090386.

Date/timePositionNaut miles runAvg speedWind from/ knotsBaromVisibWave heightAir tempDewpointWater temp
2015-Jun-12 12:29N 35°57' W 005°36'8 9.1
2015-Jun-12 11:33N 35°60' W 005°26'9 8.7
2015-Jun-12 10:33N 36°02' W 005°15'11510.3
2015-Jun-11 23:25N 36°21' W 002°55'910.3
2015-Jun-11 22:30N 36°22' W 002°44'1110.8
2015-Jun-11 21:28N 36°24' W 002°30'1011.2
2015-Jun-11 20:33N 36°25' W 002°17'3711.4
2015-Jun-11 17:19N 36°47' W 001°41'911.5
2015-Jun-11 16:33N 36°53' W 001°32'2811.7
2015-Jun-11 14:10N 37°11' W 001°06'912.0
2015-Jun-11 13:23N 37°18' W 000°57'1012.2
2015-Jun-11 12:33N 37°25' W 000°48'1212.4
2015-Jun-11 11:33N 37°33' W 000°36'1212.3
2015-Jun-11 10:33N 37°43' W 000°27'1312.6
2015-Jun-11 09:33N 37°53' W 000°18'1212.5
2015-Jun-11 08:33N 38°04' W 000°09'11312.4
2015-Jun-10 23:27N 39°41' E 001°04'1112.5
2015-Jun-10 22:32N 39°51' E 001°11'1212.6
2015-Jun-10 21:33N 40°02' E 001°19'1312.5
2015-Jun-10 20:33N 40°13' E 001°26'1212.4
2015-Jun-10 19:33N 40°24' E 001°34'1212.4
2015-Jun-10 18:33N 40°35' E 001°42'1212.5
2015-Jun-10 17:33N 40°46' E 001°49'1212.5
2015-Jun-10 16:33N 40°57' E 001°57'1212.1
2015-Jun-10 15:33N 41°08' E 002°04'1210.9
2015-Jun-10 14:24N 41°20' E 002°10'1 0.8
2015-Jun-10 13:29N 41°20' E 002°09'0 0.0
2015-Jun-10 03:28N 41°20' E 002°09'0 0.0
2015-Jun-09 21:04N 41°20' E 002°09'0 0.0
2015-Jun-09 18:10N 41°20' E 002°09'0 0.0
2015-Jun-09 07:28N 41°20' E 002°09'0 0.2
2015-Jun-09 06:10N 41°20' E 002°09'2 3.1
2015-Jun-09 05:31N 41°19' E 002°11'0 0.1
2015-Jun-09 04:10N 41°19' E 002°11'0 0.0
2015-Jun-09 03:28N 41°19' E 002°11'0 0.0
2015-Jun-09 02:22N 41°19' E 002°11'0 0.0
2015-Jun-08 23:16N 41°19' E 002°11'0 0.0
2015-Jun-08 22:07N 41°19' E 002°11'0 0.0
2015-Jun-08 21:10N 41°19' E 002°11'0 0.0
2015-Jun-08 20:04N 41°19' E 002°11'0 0.0
2015-Jun-08 19:28N 41°19' E 002°11'0 0.0
2015-Jun-08 18:28N 41°19' E 002°11'0 0.0
2015-Jun-08 17:04N 41°19' E 002°11'0 0.1
2015-Jun-08 16:31N 41°19' E 002°11'0 0.0
2015-Jun-08 15:28N 41°19' E 002°11'0 0.0
2015-Jun-08 14:28N 41°19' E 002°11'0 0.0
2015-Jun-08 13:28N 41°19' E 002°11'0 0.0
2015-Jun-08 12:10N 41°19' E 002°11'0 0.0
2015-Jun-08 11:10N 41°19' E 002°11'0 0.0
2015-Jun-08 10:16N 41°19' E 002°11'0 0.0
2015-Jun-08 07:28N 41°19' E 002°11'0 0.0
2015-Jun-08 00:22N 41°19' E 002°11'0 0.0
2015-Jun-07 23:28N 41°19' E 002°11'0 0.0
2015-Jun-07 22:28N 41°19' E 002°11'0 0.0
2015-Jun-07 21:04N 41°19' E 002°11'0 0.0
2015-Jun-07 20:22N 41°19' E 002°11'0 0.0
2015-Jun-07 19:10N 41°19' E 002°11'0 0.0
2015-Jun-07 17:10N 41°19' E 002°11'0 0.0
2015-Jun-07 16:28N 41°19' E 002°11'0 0.0
2015-Jun-07 15:28N 41°19' E 002°11'0 0.0
2015-Jun-07 14:31N 41°19' E 002°11'0 0.0
2015-Jun-07 13:19N 41°19' E 002°11'0 0.0
2015-Jun-07 12:28N 41°19' E 002°11'0 0.0
2015-Jun-07 11:31N 41°19' E 002°11'0 0.0
2015-Jun-07 10:28N 41°19' E 002°11'0 0.0
2015-Jun-07 09:28N 41°19' E 002°11'0 0.0
2015-Jun-07 08:22N 41°19' E 002°11'0 0.0
2015-Jun-07 07:16N 41°19' E 002°11'0 0.0
2015-Jun-07 06:10N 41°19' E 002°11'0 0.0
2015-Jun-07 05:31N 41°19' E 002°11'0 0.0
2015-Jun-07 04:28N 41°19' E 002°11'0 0.0
2015-Jun-07 03:28N 41°19' E 002°11'0 0.0
2015-Jun-07 02:25N 41°19' E 002°11'0 0.0
2015-Jun-07 01:31N 41°19' E 002°11'0 0.0
2015-Jun-07 00:31N 41°19' E 002°11'0 0.0
2015-Jun-06 23:28N 41°19' E 002°11'0 0.0
2015-Jun-06 22:31N 41°19' E 002°11'0 0.0
2015-Jun-06 21:28N 41°19' E 002°11'0 0.0
2015-Jun-06 20:28N 41°19' E 002°11'0 0.0
2015-Jun-06 19:28N 41°19' E 002°11'0 0.0
2015-Jun-06 18:31N 41°19' E 002°11'0 0.0
2015-Jun-06 17:28N 41°19' E 002°11'0 0.0
2015-Jun-06 16:28N 41°19' E 002°11'0 0.0
2015-Jun-06 15:31N 41°19' E 002°11'0 0.0
2015-Jun-06 14:28N 41°19' E 002°11'0 0.0
2015-Jun-06 12:22N 41°19' E 002°11'0 0.0
2015-Jun-06 11:28N 41°19' E 002°11'0 0.0
2015-Jun-06 10:28N 41°19' E 002°11'0 0.0
2015-Jun-06 08:16N 41°19' E 002°11'0 0.0
2015-Jun-06 07:28N 41°19' E 002°11'0 0.0
2015-Jun-06 06:28N 41°19' E 002°11'0 0.0
2015-Jun-06 05:28N 41°19' E 002°11'0 0.0
2015-Jun-06 04:16N 41°19' E 002°11'0 0.0
2015-Jun-06 03:31N 41°19' E 002°11'0 0.0
2015-Jun-06 02:31N 41°19' E 002°11'0 0.0
2015-Jun-06 01:28N 41°19' E 002°11'0 0.0
2015-Jun-06 00:28N 41°19' E 002°11'0 0.0
2015-Jun-05 23:28N 41°19' E 002°11'0 0.0
2015-Jun-05 22:25N 41°19' E 002°11'0 0.0
2015-Jun-05 21:31N 41°19' E 002°11'0 0.0
2015-Jun-05 20:31N 41°19' E 002°11'0 0.0
2015-Jun-05 19:19N 41°19' E 002°11'0 0.0
2015-Jun-05 18:19N 41°19' E 002°11'0 0.0
2015-Jun-05 17:22N 41°19' E 002°11'0 0.0
2015-Jun-05 16:31N 41°19' E 002°11'0 0.0
2015-Jun-05 14:33N 41°19' E 002°11'5 5.4
2015-Jun-05 13:33N 41°15' E 002°16'1312.7
2015-Jun-05 12:33N 41°09' E 002°31'1413.4
2015-Jun-05 11:33N 41°03' E 002°48'1312.8
2015-Jun-05 10:33N 40°58' E 003°03'1312.7
2015-Jun-05 09:34N 40°52' E 003°18'1313.2
2015-Jun-05 08:32N 40°47' E 003°34'1313.1
2015-Jun-05 07:33N 40°40' E 003°48'1313.2
2015-Jun-05 06:32N 40°34' E 004°04'1312.8
2015-Jun-05 05:32N 40°27' E 004°19'1313.0
2015-Jun-05 04:33N 40°20' E 004°33'1412.8
2015-Jun-05 03:30N 40°13' E 004°48'1213.1
2015-Jun-05 02:33N 40°07' E 005°02'1413.5
2015-Jun-05 01:31N 39°60' E 005°17'1313.0
2015-Jun-05 00:32N 39°53' E 005°32'1212.6
2015-Jun-04 23:33N 39°47' E 005°46'1313.0
2015-Jun-04 22:33N 39°40' E 006°00'1413.2
2015-Jun-04 21:30N 39°33' E 006°15'1313.4
2015-Jun-04 20:33N 39°26' E 006°30'1313.2
2015-Jun-04 19:32N 39°19' E 006°44'1313.0
2015-Jun-04 18:33N 39°13' E 006°59'1312.8
2015-Jun-04 17:32N 39°06' E 007°13'1313.0
2015-Jun-04 16:30N 38°59' E 007°28'1212.9
2015-Jun-04 15:33N 38°53' E 007°41'1313.0
2015-Jun-04 14:32N 38°46' E 007°56'1313.1
2015-Jun-04 13:33N 38°39' E 008°10'1212.4
2015-Jun-04 12:33N 38°32' E 008°23'1212.5
2015-Jun-04 11:33N 38°27' E 008°37'1312.4
2015-Jun-04 10:33N 38°20' E 008°51'1312.8
2015-Jun-04 09:33N 38°15' E 009°05'1313.2
2015-Jun-04 08:33N 38°10' E 009°21'1313.2
2015-Jun-04 07:33N 38°05' E 009°37'3913.0
2015-Jun-04 04:33N 37°49' E 010°22'1512.8
2015-Jun-04 03:22N 37°43' E 010°39'1012.5
2015-Jun-04 02:33N 37°37' E 010°50'1212.4
2015-Jun-04 01:33N 37°32' E 011°04'1312.6
2015-Jun-04 00:33N 37°25' E 011°18'1312.7
2015-Jun-03 23:33N 37°19' E 011°32'1312.6
2015-Jun-03 22:33N 37°12' E 011°45'1312.7
2015-Jun-03 21:33N 37°07' E 011°59'1312.8
2015-Jun-03 20:33N 37°01' E 012°13'1212.1
2015-Jun-03 19:32N 36°53' E 012°25'1212.4
2015-Jun-03 18:33N 36°43' E 012°35'1212.4
2015-Jun-03 17:33N 36°34' E 012°45'1312.6
2015-Jun-03 16:33N 36°24' E 012°55'1312.9
2015-Jun-03 15:33N 36°15' E 013°06'1312.5
2015-Jun-03 14:33N 36°05' E 013°16'1312.6
2015-Jun-03 13:33N 35°58' E 013°29'1212.5
2015-Jun-03 12:33N 35°52' E 013°42'1312.7
2015-Jun-03 11:33N 35°45' E 013°55'1312.6
2015-Jun-03 10:33N 35°38' E 014°08'1312.8
2015-Jun-03 09:33N 35°31' E 014°21'1312.6
2015-Jun-03 08:33N 35°24' E 014°34'1312.5
2015-Jun-03 07:33N 35°17' E 014°47'1212.5
2015-Jun-03 06:33N 35°10' E 014°60'1312.4
2015-Jun-03 05:32N 35°07' E 015°14'1212.3
2015-Jun-03 04:33N 35°04' E 015°29'1212.3
2015-Jun-03 03:33N 35°01' E 015°43'1212.5
2015-Jun-03 02:33N 34°58' E 015°58'1312.5
2015-Jun-03 01:33N 34°55' E 016°13'1312.5
2015-Jun-03 00:31N 34°52' E 016°28'1212.5
2015-Jun-02 23:33N 34°49' E 016°43'3812.7
2015-Jun-02 20:33N 34°40' E 017°28'1313.1
2015-Jun-02 19:33N 34°37' E 017°43'  

Dump ship's entire track history